Time;durP1;ratioP1;P1;durP2;ratioP2;P2;SDS_P1;SDS_P2;PMS_P1;PMS_P2;Temp;Humidity;BMP_temperature;BMP_pressure;BME280_temperature;BME280_humidity;BME280_pressure;Samples;Min_cycle;Max_cycle;Signal;HPM_P1;HPM_P2
2023/05/15 00:00:56;;;;;;;;;;;;;;;10.04;100.00;97459.53;18545209;31;19960;-58
2023/05/15 00:10:59;;;;;;;;;;;;;;;9.93;100.00;97458.72;18562573;32;20014;-57
2023/05/15 00:21:03;;;;;;;;;;;;;;;9.73;100.00;97459.50;18570670;32;20008;-58
2023/05/15 00:31:05;;;;;;;;;;;;;;;9.57;100.00;97467.59;18570271;32;19999;-57
2023/05/15 00:41:09;;;;;;;;;;;;;;;9.59;100.00;97465.47;18554945;32;20043;-57
2023/05/15 00:51:11;;;;;;;;;;;;;;;9.70;100.00;97463.56;18568560;32;19972;-58
2023/05/15 01:01:15;;;;;;;;;;;;;;;9.87;100.00;97462.47;18568146;32;20373;-57
2023/05/15 01:11:17;;;;;;;;;;;;;;;9.97;100.00;97451.69;18567722;32;19953;-57
2023/05/15 01:21:35;;;;;;;;;;;;;;;9.97;100.00;97459.78;18566328;32;20737;-58
2023/05/15 01:31:41;;;;;;;;;;;;;;;9.89;100.00;97450.34;18566811;32;19987;-58
2023/05/15 01:42:00;;;;;;;;;;;;;;;9.82;100.00;97447.09;18565543;32;19952;-57
2023/05/15 01:52:11;;;;;;;;;;;;;;;9.64;100.00;97432.25;18550163;31;19948;-57
2023/05/15 02:02:14;;;;;;;;;;;;;;;9.41;100.00;97420.91;18565441;32;20289;-57
2023/05/15 02:12:17;;;;;;;;;;;;;;;9.13;100.00;97416.81;18563890;32;20004;-57
2023/05/15 02:22:19;;;;;;;;;;;;;;;8.88;100.00;97420.25;18563381;32;19975;-58
2023/05/15 02:32:30;;;;;;;;;;;;;;;8.69;100.00;97418.03;18562631;32;19979;-58
2023/05/15 02:42:33;;;;;;;;;;;;;;;8.55;100.00;97406.12;18547554;32;19968;-55
2023/05/15 02:52:35;;;;;;;;;;;;;;;8.42;100.00;97427.03;18562341;32;19956;-56
2023/05/15 03:02:38;;;;;;;;;;;;;;;8.46;100.00;97436.25;18561846;32;20362;-57
2023/05/15 03:12:40;;;;;;;;;;;;;;;8.72;100.00;97427.50;18561072;32;19956;-57
2023/05/15 03:22:43;;;;;;;;;;;;;;;8.57;100.00;97430.94;18560865;32;20000;-57
2023/05/15 03:32:45;;;;;;;;;;;;;;;8.42;100.00;97427.03;18560331;32;20012;-58
2023/05/15 03:42:47;;;;;;;;;;;;;;;8.25;100.00;97434.50;18559918;32;19993;-58
2023/05/15 03:52:49;;;;;;;;;;;;;;;8.14;100.00;97433.63;18572220;32;19952;-57
2023/05/15 04:02:52;;;;;;;;;;;;;;;8.13;100.00;97432.81;18571919;32;20000;-57
2023/05/15 04:12:54;;;;;;;;;;;;;;;8.20;100.00;97434.47;18571281;32;19953;-58
2023/05/15 04:22:56;;;;;;;;;;;;;;;8.26;100.00;97419.94;18570606;32;20277;-57
2023/05/15 04:32:59;;;;;;;;;;;;;;;8.42;100.00;97423.56;18556240;32;20003;-57
2023/05/15 04:43:02;;;;;;;;;;;;;;;8.53;100.00;97437.91;18569292;32;19987;-58
2023/05/15 04:53:05;;;;;;;;;;;;;;;8.51;100.00;97442.75;18568786;32;19990;-57
2023/05/15 05:03:07;;;;;;;;;;;;;;;8.61;100.00;97464.38;18553403;32;19999;-57
2023/05/15 05:13:10;;;;;;;;;;;;;;;8.82;100.00;97455.31;18567665;32;19956;-57
2023/05/15 05:23:17;;;;;;;;;;;;;;;9.09;100.00;97464.28;18552322;32;19983;-56
2023/05/15 05:33:19;;;;;;;;;;;;;;;9.55;100.00;97471.66;18566364;32;19975;-58
2023/05/15 05:43:21;;;;;;;;;;;;;;;9.95;100.00;97464.66;18565191;32;19957;-58
2023/05/15 05:53:24;;;;;;;;;;;;;;;10.39;100.00;97458.69;18565194;32;19988;-57
2023/05/15 06:03:27;;;;;;;;;;;;;;;10.68;100.00;97463.47;18550156;32;20007;-58
2023/05/15 06:13:29;;;;;;;;;;;;;;;11.11;100.00;97461.09;18563210;32;20324;-58
2023/05/15 06:23:32;;;;;;;;;;;;;;;11.48;100.00;97470.66;18563145;31;19988;-57
2023/05/15 06:33:35;;;;;;;;;;;;;;;11.90;100.00;97473.88;18562683;32;19971;-58
2023/05/15 06:43:37;;;;;;;;;;;;;;;12.22;100.00;97480.66;18561902;32;19990;-58
2023/05/15 06:53:40;;;;;;;;;;;;;;;12.44;100.00;97485.59;18561764;32;20268;-58
2023/05/15 07:03:43;;;;;;;;;;;;;;;12.65;100.00;97485.41;18561306;32;19984;-57
2023/05/15 07:13:46;;;;;;;;;;;;;;;12.82;100.00;97483.03;18546735;31;20352;-57
2023/05/15 07:23:49;;;;;;;;;;;;;;;13.05;100.00;97483.31;18554156;32;20358;-58
2023/05/15 07:33:52;;;;;;;;;;;;;;;13.37;100.00;97477.22;18573602;32;19964;-58
2023/05/15 07:43:55;;;;;;;;;;;;;;;13.78;100.00;97480.44;18558386;32;20295;-58
2023/05/15 07:53:58;;;;;;;;;;;;;;;14.11;100.00;97478.53;18572495;32;19985;-58
2023/05/15 08:04:06;;;;;;;;;;;;;;;14.32;100.00;97495.34;18572151;32;19953;-57
2023/05/15 08:14:08;;;;;;;;;;;;;;;14.71;100.00;97490.56;18556855;32;19957;-58
2023/05/15 08:24:15;;;;;;;;;;;;;;;15.11;100.00;97477.25;18570665;32;19952;-58
2023/05/15 08:34:19;;;;;;;;;;;;;;;15.41;100.00;97475.00;18569872;32;20011;-57
2023/05/15 08:44:23;;;;;;;;;;;;;;;16.05;100.00;97474.88;18569268;32;19967;-56
2023/05/15 08:54:27;;;;;;;;;;;;;;;16.76;100.00;97478.81;18568705;32;19967;-58
2023/05/15 09:04:30;;;;;;;;;;;;;;;16.85;100.00;97470.63;18567872;31;20312;-56
2023/05/15 09:14:33;;;;;;;;;;;;;;;17.56;100.00;97464.22;18568176;32;20026;-55
2023/05/15 09:24:37;;;;;;;;;;;;;;;17.93;100.00;97460.06;18552967;32;20336;-57
2023/05/15 09:34:42;;;;;;;;;;;;;;;18.27;100.00;97454.84;18566537;32;19976;-57
2023/05/15 09:44:47;;;;;;;;;;;;;;;18.66;100.00;97454.87;18565166;32;19959;-57
2023/05/15 09:54:52;;;;;;;;;;;;;;;17.83;100.00;97443.97;18565160;32;20336;-57
2023/05/15 10:04:58;;;;;;;;;;;;;;;17.72;100.00;97437.19;18564554;32;19957;-57
2023/05/15 10:15:03;;;;;;;;;;;;;;;18.05;100.00;97423.03;18563927;32;20303;-56
2023/05/15 10:25:15;;;;;;;;;;;;;;;18.61;100.00;97429.28;18563786;32;19966;-56
2023/05/15 10:35:20;;;;;;;;;;;;;;;19.06;100.00;97416.19;18548458;32;20009;-56
2023/05/15 10:45:24;;;;;;;;;;;;;;;18.93;96.02;97407.09;18548006;32;20332;-57
2023/05/15 10:55:30;;;;;;;;;;;;;;;20.04;91.06;97398.66;18561666;32;19960;-57
2023/05/15 11:05:53;;;;;;;;;;;;;;;19.79;89.10;97376.59;18561531;32;19971;-57
2023/05/15 11:15:56;;;;;;;;;;;;;;;20.01;94.13;97358.97;18536940;32;19988;-57
2023/05/15 11:26:02;;;;;;;;;;;;;;;20.64;70.31;97350.44;18560699;32;19948;-57
2023/05/15 11:36:06;;;;;;;;;;;;;;;21.94;65.02;97351.47;18560257;31;19965;-57
2023/05/15 11:46:11;;;;;;;;;;;;;;;21.17;63.80;97338.69;18546201;32;19973;-57
2023/05/15 11:56:19;;;;;;;;;;;;;;;21.71;63.05;97333.94;18545894;32;19956;-57
2023/05/15 12:06:23;;;;;;;;;;;;;;;22.78;62.29;97335.06;18562663;32;20384;-57
2023/05/15 12:16:29;;;;;;;;;;;;;;;22.85;68.22;97329.69;18571255;31;19953;-57
2023/05/15 12:26:33;;;;;;;;;;;;;;;23.60;66.71;97319.47;18556733;32;19965;-56
2023/05/15 12:36:36;;;;;;;;;;;;;;;23.59;60.42;97306.81;18569953;31;19983;-56
2023/05/15 12:46:39;;;;;;;;;;;;;;;22.64;56.35;97313.47;18569616;32;19970;-57
2023/05/15 12:56:44;;;;;;;;;;;;;;;21.42;58.72;97322.09;18554642;32;19999;-57
2023/05/15 13:06:47;;;;;;;;;;;;;;;20.99;83.26;97336.22;18568559;32;19968;-56
2023/05/15 13:16:50;;;;;;;;;;;;;;;21.95;100.00;97333.00;18566618;32;19948;-57
2023/05/15 13:26:54;;;;;;;;;;;;;;;22.04;71.17;97341.09;18552867;32;19991;-57
2023/05/15 13:36:58;;;;;;;;;;;;;;;22.75;60.71;97369.63;18551742;31;19964;-57
2023/05/15 13:47:03;;;;;;;;;;;;;;;22.69;56.03;97349.00;18565852;32;19996;-57
2023/05/15 13:57:06;;;;;;;;;;;;;;;21.47;58.25;97341.13;18565171;32;19948;-57
2023/05/15 14:07:09;;;;;;;;;;;;;;;21.05;58.81;97346.97;18550533;32;19957;-57
2023/05/15 14:17:13;;;;;;;;;;;;;;;20.36;62.53;97327.56;18564000;32;19960;-56
2023/05/15 14:27:17;;;;;;;;;;;;;;;19.75;66.13;97318.87;18563018;32;20369;-56
2023/05/15 14:37:20;;;;;;;;;;;;;;;19.22;85.74;97326.78;18562460;32;19983;-57
2023/05/15 14:47:24;;;;;;;;;;;;;;;18.87;81.91;97323.47;18562188;32;19957;-57
2023/05/15 14:57:27;;;;;;;;;;;;;;;18.99;83.37;97309.06;18535228;32;20299;-57
2023/05/15 15:07:50;;;;;;;;;;;;;;;19.41;70.50;97317.28;18561401;32;20032;-56
2023/05/15 15:17:54;;;;;;;;;;;;;;;19.25;75.61;97317.06;18561129;32;20011;-56
2023/05/15 15:27:57;;;;;;;;;;;;;;;18.86;90.16;97314.44;18546277;31;19956;-56
2023/05/15 15:38:00;;;;;;;;;;;;;;;18.51;85.86;97325.63;18560294;31;20298;-56
2023/05/15 15:48:03;;;;;;;;;;;;;;;18.79;85.59;97333.34;18571893;32;19957;-55
2023/05/15 15:58:07;;;;;;;;;;;;;;;19.43;72.13;97348.69;18572263;32;19956;-56
2023/05/15 16:08:12;;;;;;;;;;;;;;;20.07;62.68;97354.84;18557571;32;19965;-55
2023/05/15 16:18:15;;;;;;;;;;;;;;;19.69;64.69;97358.59;18571212;31;20004;-56
2023/05/15 16:28:19;;;;;;;;;;;;;;;19.48;75.57;97364.13;18570704;32;20250;-55
2023/05/15 16:38:23;;;;;;;;;;;;;;;19.25;63.30;97375.47;18555967;31;19987;-55
2023/05/15 16:48:27;;;;;;;;;;;;;;;18.82;69.03;97376.50;18569393;32;19995;-56
2023/05/15 16:58:33;;;;;;;;;;;;;;;19.05;71.60;97368.00;18568719;32;20008;-55
2023/05/15 17:08:36;;;;;;;;;;;;;;;18.56;75.77;97377.44;18568424;32;19957;-55
2023/05/15 17:18:39;;;;;;;;;;;;;;;17.75;84.36;97388.13;18553578;31;19989;-55
2023/05/15 17:28:43;;;;;;;;;;;;;;;17.02;89.67;97388.78;18567055;32;19988;-55
2023/05/15 17:38:46;;;;;;;;;;;;;;;16.43;100.00;97399.97;18565963;31;19984;-56
2023/05/15 17:48:50;;;;;;;;;;;;;;;15.74;100.00;97396.53;18565724;32;20234;-55
2023/05/15 17:58:53;;;;;;;;;;;;;;;15.08;100.00;97396.19;18550663;32;19993;-56
2023/05/15 18:08:56;;;;;;;;;;;;;;;14.61;100.00;97419.97;18564634;32;20005;-56
2023/05/15 18:19:00;;;;;;;;;;;;;;;14.05;100.00;97441.69;18563973;32;19982;-56
2023/05/15 18:29:04;;;;;;;;;;;;;;;13.59;100.00;97458.72;18563257;32;19953;-55
2023/05/15 18:39:06;;;;;;;;;;;;;;;13.34;100.00;97468.81;18561455;31;19965;-54
2023/05/15 18:49:09;;;;;;;;;;;;;;;13.22;100.00;97474.69;18559679;32;19984;-56
2023/05/15 18:59:12;;;;;;;;;;;;;;;13.01;100.00;97468.72;18544783;32;19967;-56
2023/05/15 19:09:16;;;;;;;;;;;;;;;12.86;100.00;97462.37;18558432;31;19969;-55
2023/05/15 19:19:19;;;;;;;;;;;;;;;12.74;100.00;97456.53;18557373;32;20000;-55
2023/05/15 19:29:22;;;;;;;;;;;;;;;12.52;100.00;97457.84;18543615;32;19996;-55
2023/05/15 19:39:25;;;;;;;;;;;;;;;12.42;100.00;97460.69;18558288;32;19953;-56
2023/05/15 19:49:28;;;;;;;;;;;;;;;12.31;100.00;97470.03;18533563;32;20016;-55
2023/05/15 19:59:30;;;;;;;;;;;;;;;12.22;100.00;97469.81;18559973;32;20312;-55
2023/05/15 20:09:33;;;;;;;;;;;;;;;12.14;100.00;97484.00;18559298;32;19952;-55
2023/05/15 20:19:38;;;;;;;;;;;;;;;12.01;100.00;97480.06;18559404;32;19968;-55
2023/05/15 20:29:41;;;;;;;;;;;;;;;11.92;100.00;97477.13;18564299;32;19996;-54
2023/05/15 20:39:44;;;;;;;;;;;;;;;11.79;100.00;97467.72;18570072;31;19964;-55
2023/05/15 20:49:46;;;;;;;;;;;;;;;11.76;100.00;97468.31;18569623;32;20295;-54
2023/05/15 20:59:49;;;;;;;;;;;;;;;11.67;100.00;97480.81;18568834;31;20377;-55
2023/05/15 21:09:51;;;;;;;;;;;;;;;11.59;100.00;97474.09;18568181;32;20003;-53
2023/05/15 21:19:56;;;;;;;;;;;;;;;11.56;100.00;97482.00;18567695;32;19965;-54
2023/05/15 21:29:58;;;;;;;;;;;;;;;11.51;100.00;97478.22;18566979;32;19952;-55
2023/05/15 21:40:01;;;;;;;;;;;;;;;11.45;100.00;97473.13;18565310;31;20422;-54
2023/05/15 21:50:04;;;;;;;;;;;;;;;11.40;100.00;97468.56;18565818;32;19961;-54
2023/05/15 22:00:08;;;;;;;;;;;;;;;11.30;100.00;97466.69;18565149;32;19960;-54
2023/05/15 22:10:15;;;;;;;;;;;;;;;11.30;100.00;97465.91;18564857;32;20277;-53
2023/05/15 22:20:17;;;;;;;;;;;;;;;11.24;100.00;97457.00;18564142;32;19983;-55
2023/05/15 22:30:20;;;;;;;;;;;;;;;11.13;100.00;97467.06;18563262;32;20004;-55
2023/05/15 22:40:22;;;;;;;;;;;;;;;11.01;100.00;97458.47;18562347;32;19953;-54
2023/05/15 22:50:25;;;;;;;;;;;;;;;10.87;100.00;97470.97;18562033;32;19964;-54
2023/05/15 23:00:28;;;;;;;;;;;;;;;10.81;100.00;97464.75;18547950;32;19948;-54
2023/05/15 23:10:32;;;;;;;;;;;;;;;10.81;100.00;97464.75;18561439;32;19965;-56
2023/05/15 23:20:34;;;;;;;;;;;;;;;10.85;100.00;97466.66;18561013;32;20286;-54
2023/05/15 23:30:36;;;;;;;;;;;;;;;10.88;100.00;97465.31;18547207;32;19979;-55
2023/05/15 23:40:39;;;;;;;;;;;;;;;10.88;100.00;97456.34;18560223;32;19968;-55
2023/05/15 23:50:41;;;;;;;;;;;;;;;10.81;100.00;97452.06;18560244;32;20012;-56
